Huvudsida
METAR-TAF:

METAR-TAF

Flygplatser :

Karleby-Jakobstad flygplats

Karleby, Finland

latitud: 63-43N, longitud: 023-09E, höjd: 25 m

Aktuellt väderrapport

Denna rapport gjordes för 40 minuter sedan, klockan 21:20 UTC
Vind 3 kt från syd
Temperatur -4°C
Fuktighet 93%
Tryck 1012 hPa
Sikt 10 km eller mer
Mulet på en höjd av 1000 ft

METAR: EFKK 112120Z AUTO 19003KT 9999 OVC010 M04/M05 Q1012

Tid: 00:00 (22:00 UTC)

Väderprognos

Denna rapport gjordes för 1 timme och 31 minuter sedan, klockan 20:29 UTC
Prognos gäller från 11 kl. 21 UTC till 11 kl. 24 UTC
Vind 2 kt från syd/sydost
Sikt 10 km eller mer
Spridda moln på en höjd av 1000 ft
Mulet på en höjd av 2500 ft
Temporärt
från 11 kl. 21 UTC till 11 kl. 24 UTC
Brutna moln på en höjd av 900 ft

TAF: EFKK 112029Z 1121/1124 16002KT 9999 SCT010 OVC025 TEMPO 1121/1124 BKN009

Aktuella väderrapporter och prognoser från 4000 flygplatser (METAR- och TAF-rapporter).

De tillgängliga stationerna syns som gula och röda prickar på kartan.

För musen över prickarna för att se namnen på stationerna.

Klicka sedan för att få väderrapporter och prognoser.

För att ändra kartan: Klicka på de gröna knapparna med ett svart kors på för att zooma in; den gröna knappen med ett streck på för att zooma ut; eller på de gröna pilarna för angränsande kartor.


METAR-TAF: